createdAt,value
2016-07-10T00:00:49.158Z,99.99
2016-07-10T00:01:49.026Z,99.99
2016-07-10T00:02:49.015Z,99.99
2016-07-10T00:03:49.020Z,99.99
2016-07-10T00:04:49.022Z,99.99
2016-07-10T00:05:49.176Z,99.99
2016-07-10T00:06:49.027Z,99.99
2016-07-10T00:07:49.170Z,99.99
2016-07-10T00:08:49.038Z,99.99
2016-07-10T00:09:49.034Z,99.99
2016-07-10T00:10:49.173Z,99.99
2016-07-10T00:11:49.041Z,99.99
2016-07-10T00:12:49.038Z,99.99
2016-07-10T00:13:49.192Z,99.99
2016-07-10T00:14:49.052Z,99.99
2016-07-10T00:15:49.192Z,99.99
2016-07-10T00:16:49.054Z,99.99
2016-07-10T00:17:49.316Z,99.99
2016-07-10T00:18:49.064Z,99.99
2016-07-10T00:19:49.067Z,99.99
2016-07-10T00:20:49.211Z,99.99
2016-07-10T00:21:49.219Z,99.99
2016-07-10T00:22:49.209Z,99.99
2016-07-10T00:23:49.079Z,99.99
2016-07-10T00:24:49.231Z,99.99
2016-07-10T00:25:49.225Z,99.99
2016-07-10T00:26:49.091Z,99.99
2016-07-10T00:27:49.220Z,99.99
2016-07-10T00:28:49.233Z,99.99
2016-07-10T00:29:49.229Z,99.99
2016-07-10T00:30:49.098Z,99.99
2016-07-10T00:31:49.242Z,99.99
2016-07-10T00:32:49.258Z,99.99
2016-07-10T00:33:49.179Z,99.99
2016-07-10T00:34:49.248Z,99.99
2016-07-10T00:35:49.249Z,99.99
2016-07-10T00:36:49.114Z,99.99
2016-07-10T00:37:49.123Z,99.99
2016-07-10T00:38:49.122Z,99.99
2016-07-10T00:39:49.128Z,99.99
2016-07-10T00:40:49.263Z,99.99
2016-07-10T00:41:49.132Z,99.99
2016-07-10T00:42:49.267Z,99.99
2016-07-10T00:43:49.275Z,99.99
2016-07-10T00:44:49.273Z,99.99
2016-07-10T00:45:49.147Z,99.99
2016-07-10T00:46:49.141Z,99.99
2016-07-10T00:47:49.151Z,99.99
2016-07-10T00:48:49.294Z,99.99
2016-07-10T00:49:49.399Z,99.99
2016-07-10T00:50:49.155Z,99.99
2016-07-10T00:51:49.302Z,99.99
2016-07-10T00:52:49.160Z,99.99
2016-07-10T00:53:49.970Z,99.99
2016-07-10T00:54:49.300Z,99.99
2016-07-10T00:55:49.172Z,99.99
2016-07-10T00:56:49.335Z,99.99
2016-07-10T00:57:49.339Z,99.99
2016-07-10T00:58:49.316Z,99.99
2016-07-10T00:59:49.321Z,99.99
2016-07-10T01:00:49.184Z,99.99
2016-07-10T01:01:49.184Z,99.99
2016-07-10T01:02:49.325Z,99.99
2016-07-10T01:03:49.330Z,99.99
2016-07-10T01:04:49.431Z,99.99
2016-07-10T01:05:49.332Z,99.99
2016-07-10T01:06:49.345Z,99.99
2016-07-10T01:07:49.342Z,99.99
2016-07-10T01:08:49.232Z,99.99
2016-07-10T01:09:49.352Z,99.99
2016-07-10T01:10:49.213Z,99.99
2016-07-10T01:11:49.238Z,99.99
2016-07-10T01:12:49.213Z,99.99
2016-07-10T01:13:49.226Z,99.99
2016-07-10T01:14:49.224Z,99.99
2016-07-10T01:15:49.227Z,99.99
2016-07-10T01:16:49.229Z,99.99
2016-07-10T01:17:49.237Z,99.99
2016-07-10T01:18:49.237Z,99.99
2016-07-10T01:19:49.381Z,99.99
2016-07-10T01:20:49.246Z,99.99
2016-07-10T01:21:49.503Z,99.99
2016-07-10T01:22:49.391Z,99.99
2016-07-10T01:23:49.257Z,99.99
2016-07-10T01:24:49.396Z,99.99
2016-07-10T01:25:49.260Z,99.99
2016-07-10T01:26:49.396Z,99.99
2016-07-10T01:27:49.405Z,99.99
2016-07-10T01:28:49.401Z,99.99
2016-07-10T01:29:49.261Z,99.99
2016-07-10T01:30:49.436Z,99.99
2016-07-10T01:31:49.282Z,99.99
2016-07-10T01:32:49.271Z,99.99
2016-07-10T01:33:49.417Z,99.99
2016-07-10T01:34:49.418Z,99.99
2016-07-10T01:35:49.279Z,99.99
2016-07-10T01:36:49.427Z,99.99
2016-07-10T01:37:49.526Z,99.99
2016-07-10T01:38:49.431Z,99.99
2016-07-10T01:39:49.437Z,99.99
2016-07-10T01:40:49.291Z,99.99
2016-07-10T01:41:49.299Z,99.99
2016-07-10T01:42:49.434Z,99.99
2016-07-10T01:43:49.451Z,99.99
2016-07-10T01:44:49.313Z,99.99
2016-07-10T01:45:49.308Z,99.99
2016-07-10T01:46:49.310Z,99.99
2016-07-10T01:47:49.459Z,99.99
2016-07-10T01:48:49.459Z,99.99
2016-07-10T01:49:49.464Z,99.99
2016-07-10T01:50:49.323Z,99.99
2016-07-10T01:51:49.332Z,99.99
2016-07-10T01:52:49.474Z,99.99
2016-07-10T01:53:49.463Z,99.99
2016-07-10T01:54:49.333Z,99.99
2016-07-10T01:55:49.484Z,99.99
2016-07-10T01:56:49.343Z,99.99
2016-07-10T01:57:49.342Z,99.99
2016-07-10T01:58:49.351Z,99.99
2016-07-10T01:59:49.355Z,99.99
2016-07-10T02:00:49.353Z,99.99
2016-07-10T02:01:49.359Z,99.99
2016-07-10T02:02:49.502Z,99.99
2016-07-10T02:03:49.361Z,99.99
2016-07-10T02:04:49.369Z,99.99
2016-07-10T02:05:49.506Z,99.99
2016-07-10T02:06:49.373Z,99.99
2016-07-10T02:07:49.518Z,99.99
2016-07-10T02:08:49.370Z,99.99
2016-07-10T02:09:49.519Z,99.99
2016-07-10T02:10:49.520Z,99.99
2016-07-10T02:11:49.384Z,99.99
2016-07-10T02:12:49.531Z,99.99
2016-07-10T02:13:49.529Z,99.99
2016-07-10T02:14:49.528Z,99.99
2016-07-10T02:15:49.400Z,99.99
2016-07-10T02:16:49.416Z,99.99
2016-07-10T02:17:49.400Z,99.99
2016-07-10T02:18:49.557Z,99.99
2016-07-10T02:19:49.403Z,99.99
2016-07-10T02:20:49.468Z,99.99
2016-07-10T02:21:49.549Z,99.99
2016-07-10T02:22:49.556Z,99.99
2016-07-10T02:23:49.416Z,99.99
2016-07-10T02:24:49.425Z,99.99
2016-07-10T02:25:49.618Z,99.99
2016-07-10T02:26:49.581Z,99.99
2016-07-10T02:27:49.431Z,99.99
2016-07-10T02:28:49.565Z,99.99
2016-07-10T02:29:49.434Z,99.99
2016-07-10T02:30:49.570Z,99.99
2016-07-10T02:31:49.591Z,99.99
2016-07-10T02:32:49.585Z,99.99
2016-07-10T02:33:49.607Z,99.99
2016-07-10T02:34:49.444Z,99.99
2016-07-10T02:35:49.456Z,99.99
2016-07-10T02:36:49.455Z,99.99
2016-07-10T02:37:49.603Z,99.99
2016-07-10T02:38:49.462Z,99.99
2016-07-10T02:39:49.596Z,99.99
2016-07-10T02:40:49.603Z,99.99
2016-07-10T02:41:49.759Z,99.99
2016-07-10T02:42:49.467Z,99.99
2016-07-10T02:43:49.603Z,99.99
2016-07-10T02:44:49.618Z,99.99
2016-07-10T02:45:49.607Z,99.99
2016-07-10T02:46:49.479Z,99.99
2016-07-10T02:47:49.625Z,99.99
2016-07-10T02:48:49.684Z,99.99
2016-07-10T02:49:49.630Z,99.99
2016-07-10T02:50:49.629Z,99.99
2016-07-10T02:51:49.646Z,99.99
2016-07-10T02:52:49.505Z,99.99
2016-07-10T02:53:49.507Z,99.99
2016-07-10T02:54:49.642Z,99.99
2016-07-10T02:55:49.539Z,99.99
2016-07-10T02:56:49.651Z,99.99
2016-07-10T02:57:49.654Z,99.99
2016-07-10T02:58:49.654Z,99.99
2016-07-10T02:59:49.655Z,99.99
2016-07-10T03:00:49.529Z,99.99
2016-07-10T03:01:49.667Z,99.99
2016-07-10T03:02:49.563Z,99.99
2016-07-10T03:03:49.528Z,99.99
2016-07-10T03:04:49.672Z,99.99
2016-07-10T03:05:49.533Z,99.99
2016-07-10T03:06:49.680Z,99.99
2016-07-10T03:07:49.687Z,99.99
2016-07-10T03:08:49.547Z,99.99
2016-07-10T03:09:49.698Z,99.99
2016-07-10T03:10:49.691Z,99.99
2016-07-10T03:11:49.552Z,99.99
2016-07-10T03:12:49.700Z,99.99
2016-07-10T03:13:49.664Z,99.99
2016-07-10T03:14:49.715Z,99.99
2016-07-10T03:15:49.700Z,99.99
2016-07-10T03:16:49.707Z,99.99
2016-07-10T03:17:49.715Z,99.99
2016-07-10T03:18:49.577Z,99.99
2016-07-10T03:19:49.573Z,99.99
2016-07-10T03:20:49.597Z,99.99
2016-07-10T03:21:49.717Z,99.99
2016-07-10T03:22:49.589Z,99.99
2016-07-10T03:23:49.719Z,99.99
2016-07-10T03:24:49.729Z,99.99
2016-07-10T03:25:49.593Z,99.99
2016-07-10T03:26:49.725Z,99.99
2016-07-10T03:27:49.737Z,99.99
2016-07-10T03:28:49.743Z,99.99
2016-07-10T03:29:49.691Z,99.99
2016-07-10T03:30:49.753Z,99.99
2016-07-10T03:31:49.751Z,99.99
2016-07-10T03:32:49.609Z,99.99
2016-07-10T03:33:49.758Z,99.99
2016-07-10T03:34:49.623Z,99.99
2016-07-10T03:35:49.761Z,99.99
2016-07-10T03:36:49.624Z,99.99
2016-07-10T03:37:49.766Z,99.99
2016-07-10T03:38:49.763Z,99.99
2016-07-10T03:39:49.654Z,99.99
2016-07-10T03:40:49.772Z,99.99
2016-07-10T03:41:49.780Z,99.99
2016-07-10T03:42:49.643Z,99.99
2016-07-10T03:43:49.640Z,99.99
2016-07-10T03:44:49.785Z,99.99
2016-07-10T03:45:49.712Z,99.99
2016-07-10T03:46:49.652Z,99.99
2016-07-10T03:47:49.794Z,99.99
2016-07-10T03:48:49.800Z,99.99
2016-07-10T03:49:49.667Z,99.99
2016-07-10T03:50:49.802Z,99.99
2016-07-10T03:51:49.807Z,99.99
2016-07-10T03:52:49.814Z,99.99
2016-07-10T03:53:49.671Z,99.99
2016-07-10T03:54:49.813Z,99.99
2016-07-10T03:55:49.684Z,99.99
2016-07-10T03:56:49.826Z,99.99
2016-07-10T03:57:49.690Z,99.99
2016-07-10T03:58:49.684Z,99.99
2016-07-10T03:59:49.697Z,99.99
2016-07-10T04:00:49.690Z,99.99
2016-07-10T04:01:49.725Z,99.99
2016-07-10T04:02:49.841Z,99.99
2016-07-10T04:03:49.698Z,99.99
2016-07-10T04:04:49.705Z,99.99
2016-07-10T04:05:49.711Z,99.99
2016-07-10T04:06:49.708Z,99.99
2016-07-10T04:07:49.715Z,99.99
2016-07-10T04:08:49.713Z,99.99
2016-07-10T04:09:49.733Z,99.99
2016-07-10T04:10:49.879Z,99.99
2016-07-10T04:11:49.875Z,99.99
2016-07-10T04:12:49.866Z,99.99
2016-07-10T04:13:49.741Z,99.99
2016-07-10T04:14:49.870Z,99.99
2016-07-10T04:15:49.879Z,99.99
2016-07-10T04:16:49.868Z,99.99
2016-07-10T04:17:49.746Z,99.99
2016-07-10T04:18:49.871Z,99.99
2016-07-10T04:19:49.897Z,99.99
2016-07-10T04:20:49.750Z,99.99
2016-07-10T04:21:49.758Z,99.99
2016-07-10T04:22:49.776Z,99.99
2016-07-10T04:23:49.753Z,99.99
2016-07-10T04:24:49.761Z,99.99
2016-07-10T04:25:49.769Z,99.99
2016-07-10T04:26:49.766Z,99.99
2016-07-10T04:27:49.915Z,99.99
2016-07-10T04:28:49.940Z,99.99
2016-07-10T04:29:49.776Z,99.99
2016-07-10T04:30:49.920Z,99.99
2016-07-10T04:31:49.949Z,99.99
2016-07-10T04:32:49.791Z,99.99
2016-07-10T04:33:49.785Z,99.99
2016-07-10T04:34:49.922Z,99.99
2016-07-10T04:35:49.797Z,99.99
2016-07-10T04:36:49.799Z,99.99
2016-07-10T04:37:49.794Z,99.99
2016-07-10T04:38:49.932Z,99.99
2016-07-10T04:39:49.804Z,99.99
2016-07-10T04:40:49.808Z,99.99
2016-07-10T04:41:49.958Z,99.99
2016-07-10T04:42:49.811Z,99.99
2016-07-10T04:43:49.813Z,99.99
2016-07-10T04:44:49.809Z,99.99
2016-07-10T04:45:49.819Z,99.99
2016-07-10T04:46:49.829Z,99.99
2016-07-10T04:47:49.820Z,99.99
2016-07-10T04:48:49.829Z,99.99
2016-07-10T04:49:49.969Z,99.99
2016-07-10T04:50:49.978Z,99.99
2016-07-10T04:51:49.835Z,99.99
2016-07-10T04:52:49.832Z,99.99
2016-07-10T04:53:49.851Z,99.99
2016-07-10T04:54:49.841Z,99.99
2016-07-10T04:55:50.001Z,99.99
2016-07-10T04:56:49.987Z,99.99
2016-07-10T04:57:49.853Z,99.99
2016-07-10T04:58:49.991Z,99.99
2016-07-10T04:59:49.990Z,99.99
2016-07-10T05:00:49.995Z,99.99
2016-07-10T05:01:49.875Z,99.99
2016-07-10T05:02:49.884Z,99.99
2016-07-10T05:03:50.030Z,99.99
2016-07-10T05:04:49.877Z,99.99
2016-07-10T05:05:49.883Z,99.99
2016-07-10T05:06:50.030Z,99.99
2016-07-10T05:07:49.891Z,99.99
2016-07-10T05:08:50.018Z,99.99
2016-07-10T05:09:49.889Z,99.99
2016-07-10T05:10:50.024Z,99.99
2016-07-10T05:11:50.024Z,99.99
2016-07-10T05:12:50.041Z,99.99
2016-07-10T05:13:49.892Z,99.99
2016-07-10T05:14:50.040Z,99.99
2016-07-10T05:15:50.037Z,99.99
2016-07-10T05:16:49.899Z,99.99
2016-07-10T05:17:50.061Z,99.99
2016-07-10T05:18:50.052Z,99.99
2016-07-10T05:19:50.049Z,99.99
2016-07-10T05:20:49.916Z,99.99
2016-07-10T05:21:50.060Z,99.99
2016-07-10T05:22:49.926Z,99.99
2016-07-10T05:23:49.923Z,99.99
2016-07-10T05:24:49.935Z,99.99
2016-07-10T05:25:50.065Z,99.99
2016-07-10T05:26:49.946Z,99.99
2016-07-10T05:27:49.936Z,99.99
2016-07-10T05:28:50.078Z,99.99
2016-07-10T05:29:50.078Z,99.99
2016-07-10T05:30:49.946Z,99.99
2016-07-10T05:31:49.946Z,99.99
2016-07-10T05:32:49.951Z,99.99
2016-07-10T05:33:50.095Z,99.99
2016-07-10T05:34:50.095Z,99.99
2016-07-10T05:35:49.962Z,99.99
2016-07-10T05:36:49.968Z,99.99
2016-07-10T05:37:49.963Z,99.99
2016-07-10T05:38:50.096Z,99.99
2016-07-10T05:39:50.105Z,99.99
2016-07-10T05:40:50.116Z,99.99
2016-07-10T05:41:49.977Z,99.99
2016-07-10T05:42:50.121Z,99.99
2016-07-10T05:43:49.980Z,99.99
2016-07-10T05:44:50.001Z,99.99
2016-07-10T05:45:50.125Z,99.99
2016-07-10T05:46:49.989Z,99.99
2016-07-10T05:47:50.128Z,99.99
2016-07-10T05:48:49.998Z,99.99
2016-07-10T05:49:50.132Z,99.99
2016-07-10T05:50:50.141Z,99.99
2016-07-10T05:51:50.139Z,99.99
2016-07-10T05:52:50.150Z,99.99
2016-07-10T05:53:50.008Z,99.99
2016-07-10T05:54:50.012Z,99.99
2016-07-10T05:55:50.153Z,99.99
2016-07-10T05:56:50.017Z,99.99
2016-07-10T05:57:50.167Z,99.99
2016-07-10T05:58:50.166Z,99.99
2016-07-10T05:59:50.163Z,99.99
2016-07-10T06:00:50.028Z,99.99
2016-07-10T06:01:50.167Z,99.99
2016-07-10T06:02:50.031Z,99.99
2016-07-10T06:03:50.176Z,99.99
2016-07-10T06:04:50.173Z,99.99
2016-07-10T06:05:50.044Z,99.99
2016-07-10T06:06:50.048Z,99.99
2016-07-10T06:07:50.061Z,99.99
2016-07-10T06:08:50.196Z,99.99
2016-07-10T06:09:50.061Z,99.99
2016-07-10T06:10:50.196Z,99.99
2016-07-10T06:11:50.204Z,99.69
2016-07-10T06:12:50.069Z,99.3
2016-07-10T06:13:50.088Z,99.21
2016-07-10T06:14:50.072Z,98.77
2016-07-10T06:15:50.080Z,98.49
2016-07-10T06:16:50.080Z,98.58
2016-07-10T06:17:50.218Z,98.49
2016-07-10T06:18:50.086Z,98.68
2016-07-10T06:19:50.228Z,97.91
2016-07-10T06:20:50.112Z,97.81
2016-07-10T06:21:50.235Z,96.7
2016-07-10T06:22:50.233Z,96.17
2016-07-10T06:23:50.101Z,95.89
2016-07-10T06:24:50.235Z,95.5
2016-07-10T06:25:50.103Z,94.97
2016-07-10T06:26:50.103Z,95.02
2016-07-10T06:27:50.241Z,94.24
2016-07-10T06:28:50.115Z,94.1
2016-07-10T06:29:50.115Z,92.27
2016-07-10T06:30:50.118Z,91.93
2016-07-10T06:31:50.258Z,91.35
2016-07-10T06:32:50.267Z,92.02
2016-07-10T06:33:50.125Z,91.54
2016-07-10T06:34:50.133Z,91.44
2016-07-10T06:35:50.276Z,91.83
2016-07-10T06:36:50.273Z,91.88
2016-07-10T06:37:50.141Z,91.54
2016-07-10T06:38:50.285Z,91.44
2016-07-10T06:39:50.140Z,91.83
2016-07-10T06:40:50.283Z,92.36
2016-07-10T06:41:50.280Z,92.65
2016-07-10T06:42:50.154Z,92.56
2016-07-10T06:43:50.155Z,93.62
2016-07-10T06:44:50.301Z,93.33
2016-07-10T06:45:50.173Z,93.52
2016-07-10T06:46:50.301Z,93.38
2016-07-10T06:47:50.310Z,93.43
2016-07-10T06:48:50.318Z,93.43
2016-07-10T06:49:50.311Z,93.04
2016-07-10T06:50:50.326Z,93.33
2016-07-10T06:51:50.184Z,93.13
2016-07-10T06:52:50.343Z,93.81
2016-07-10T06:53:50.322Z,93.04
2016-07-10T06:54:50.320Z,92.02
2016-07-10T06:55:50.334Z,91.93
2016-07-10T06:56:50.330Z,91.93
2016-07-10T06:57:50.194Z,92.5
2016-07-10T06:58:50.342Z,91.64
2016-07-10T06:59:50.398Z,90.33
2016-07-10T07:00:50.206Z,89.03
2016-07-10T07:01:50.211Z,88.73
2016-07-10T07:02:50.367Z,88.45
2016-07-10T07:03:50.350Z,89.22
2016-07-10T07:04:50.362Z,88.83
2016-07-10T07:05:50.354Z,87.91
2016-07-10T07:06:50.251Z,87.81
2016-07-10T07:07:50.246Z,87.43
2016-07-10T07:08:50.232Z,87.71
2016-07-10T07:09:50.233Z,86.85
2016-07-10T07:10:50.241Z,86.75
2016-07-10T07:11:50.240Z,87.43
2016-07-10T07:12:50.376Z,86.94
2016-07-10T07:13:50.277Z,86.85
2016-07-10T07:14:50.245Z,86.46
2016-07-10T07:15:50.251Z,86.02
2016-07-10T07:16:50.254Z,85.05
2016-07-10T07:17:50.256Z,85.68
2016-07-10T07:18:50.396Z,86.02
2016-07-10T07:19:50.257Z,85.83
2016-07-10T07:20:50.450Z,86.02
2016-07-10T07:21:50.267Z,86.21
2016-07-10T07:22:50.273Z,86.31
2016-07-10T07:23:50.408Z,86.21
2016-07-10T07:24:50.278Z,85.25
2016-07-10T07:25:50.416Z,84.13
2016-07-10T07:26:50.413Z,84.8
2016-07-10T07:27:50.419Z,84.28
2016-07-10T07:28:50.419Z,84.57
2016-07-10T07:29:50.288Z,85.1
2016-07-10T07:30:50.424Z,85.15
2016-07-10T07:31:50.303Z,84.32
2016-07-10T07:32:50.463Z,84.67
2016-07-10T07:33:50.307Z,84.28
2016-07-10T07:34:50.302Z,85.15
2016-07-10T07:35:50.439Z,84.19
2016-07-10T07:36:50.308Z,83.84
2016-07-10T07:37:50.318Z,83.64
2016-07-10T07:38:50.309Z,82.53
2016-07-10T07:39:50.455Z,82.33
2016-07-10T07:40:50.321Z,82.53
2016-07-10T07:41:50.459Z,82.81
2016-07-10T07:42:50.356Z,81.79
2016-07-10T07:43:50.348Z,80.63
2016-07-10T07:44:50.324Z,80.57
2016-07-10T07:45:50.333Z,80.28
2016-07-10T07:46:50.470Z,80.92
2016-07-10T07:47:50.477Z,81.5
2016-07-10T07:48:50.475Z,82.23
2016-07-10T07:49:50.391Z,82.53
2016-07-10T07:50:50.351Z,82.04
2016-07-10T07:51:50.351Z,80.98
2016-07-10T07:52:50.488Z,80.24
2016-07-10T07:53:50.494Z,80.09
2016-07-10T07:54:50.504Z,80.09
2016-07-10T07:55:50.490Z,80.34
2016-07-10T07:56:50.389Z,81.5
2016-07-10T07:57:50.368Z,81.85
2016-07-10T07:58:50.511Z,81.5
2016-07-10T07:59:50.374Z,81.6
2016-07-10T08:00:50.507Z,80.92
2016-07-10T08:01:50.386Z,80.54
2016-07-10T08:02:50.396Z,80.09
2016-07-10T08:03:50.395Z,78.44
2016-07-10T08:04:50.525Z,78.25
2016-07-10T08:05:50.540Z,78.58
2016-07-10T08:06:50.537Z,80.15
2016-07-10T08:07:50.534Z,81.12
2016-07-10T08:08:50.532Z,80.79
2016-07-10T08:09:50.538Z,79.27
2016-07-10T08:10:50.555Z,78.38
2016-07-10T08:11:50.429Z,78.05
2016-07-10T08:12:50.411Z,78.29
2016-07-10T08:13:50.548Z,78.05
2016-07-10T08:14:50.549Z,78.15
2016-07-10T08:15:50.437Z,77.42
2016-07-10T08:16:50.564Z,76.78
2016-07-10T08:17:50.564Z,76.19
2016-07-10T08:18:50.585Z,74.77
2016-07-10T08:19:50.427Z,76.07
2016-07-10T08:20:50.570Z,77.51
2016-07-10T08:21:50.442Z,78.15
2016-07-10T08:22:50.443Z,78.05
2016-07-10T08:23:50.444Z,78.44
2016-07-10T08:24:50.586Z,77.96
2016-07-10T08:25:50.576Z,77.09
2016-07-10T08:26:50.589Z,77.32
2016-07-10T08:27:50.582Z,76.74
2016-07-10T08:28:50.601Z,76.93
2016-07-10T08:29:50.603Z,76
2016-07-10T08:30:50.596Z,75.9
2016-07-10T08:31:50.614Z,74.26
2016-07-10T08:32:50.603Z,74.87
2016-07-10T08:33:50.470Z,75.51
2016-07-10T08:34:50.610Z,76.25
2016-07-10T08:35:50.606Z,75.77
2016-07-10T08:36:50.618Z,75.51
2016-07-10T08:37:50.619Z,74.58
2016-07-10T08:38:50.482Z,73.52
2016-07-10T08:39:50.615Z,73.55
2016-07-10T08:40:50.487Z,73.16
2016-07-10T08:41:50.490Z,72.83
2016-07-10T08:42:50.643Z,73.13
2016-07-10T08:43:50.630Z,73.61
2016-07-10T08:44:50.634Z,73.48
2016-07-10T08:45:50.507Z,73.58
2016-07-10T08:46:50.515Z,73.48
2016-07-10T08:47:50.648Z,72.99
2016-07-10T08:48:50.650Z,72.25
2016-07-10T08:49:50.660Z,72.87
2016-07-10T08:50:50.662Z,74
2016-07-10T08:51:50.656Z,74.68
2016-07-10T08:52:50.534Z,73.9
2016-07-10T08:53:50.532Z,74.49
2016-07-10T08:54:50.668Z,74.87
2016-07-10T08:55:50.534Z,74.97
2016-07-10T08:56:50.535Z,73.71
2016-07-10T08:57:50.541Z,72.29
2016-07-10T08:58:50.674Z,72.29
2016-07-10T08:59:50.541Z,72.58
2016-07-10T09:00:50.675Z,72.03
2016-07-10T09:01:50.682Z,72.39
2016-07-10T09:02:50.694Z,72.29
2016-07-10T09:03:50.550Z,71.7
2016-07-10T09:04:50.694Z,72.09
2016-07-10T09:05:50.554Z,72.09
2016-07-10T09:06:50.561Z,71.55
2016-07-10T09:07:50.711Z,71.64
2016-07-10T09:08:50.708Z,71.97
2016-07-10T09:09:50.590Z,72.58
2016-07-10T09:10:50.753Z,71.84
2016-07-10T09:11:50.587Z,71.39
2016-07-10T09:12:50.582Z,71
2016-07-10T09:13:50.605Z,72.07
2016-07-10T09:14:50.588Z,72.13
2016-07-10T09:15:50.735Z,71.55
2016-07-10T09:16:50.594Z,72.49
2016-07-10T09:17:50.739Z,71.26
2016-07-10T09:18:50.737Z,70.87
2016-07-10T09:19:50.733Z,70.26
2016-07-10T09:20:50.751Z,70.32
2016-07-10T09:21:50.737Z,69.77
2016-07-10T09:22:50.610Z,69.48
2016-07-10T09:23:50.753Z,69.67
2016-07-10T09:24:50.617Z,67.31
2016-07-10T09:25:50.754Z,66.21
2016-07-10T09:26:50.759Z,66.6
2016-07-10T09:27:50.768Z,67.25
2016-07-10T09:28:50.630Z,67.6
2016-07-10T09:29:50.636Z,67.99
2016-07-10T09:30:50.786Z,68.77
2016-07-10T09:31:50.641Z,68.64
2016-07-10T09:32:50.637Z,68.8
2016-07-10T09:33:50.784Z,68.84
2016-07-10T09:34:50.704Z,69.58
2016-07-10T09:35:50.653Z,69.38
2016-07-10T09:36:50.786Z,69.54
2016-07-10T09:37:50.658Z,69.64
2016-07-10T09:38:50.672Z,68.6
2016-07-10T09:39:50.665Z,67.02
2016-07-10T09:40:50.666Z,68.38
2016-07-10T09:41:50.716Z,68.51
2016-07-10T09:42:50.675Z,69.03
2016-07-10T09:43:50.822Z,69.29
2016-07-10T09:44:50.690Z,69.74
2016-07-10T09:45:50.819Z,70.26
2016-07-10T09:46:50.819Z,69.09
2016-07-10T09:47:50.698Z,69.09
2016-07-10T09:48:50.867Z,69.29
2016-07-10T09:49:50.836Z,68.64
2016-07-10T09:50:50.845Z,67.7
2016-07-10T09:51:50.835Z,67.9
2016-07-10T09:52:50.846Z,66.47
2016-07-10T09:53:50.836Z,65.5
2016-07-10T09:54:50.715Z,66.5
2016-07-10T09:55:50.840Z,66.17
2016-07-10T09:56:50.719Z,66.69
2016-07-10T09:57:50.730Z,68.44
2016-07-10T09:58:50.852Z,69.48
2016-07-10T09:59:50.721Z,69.25
2016-07-10T10:00:50.856Z,69.48
2016-07-10T10:01:50.877Z,69.87
2016-07-10T10:02:50.893Z,70.61
2016-07-10T10:03:50.740Z,70.81
2016-07-10T10:04:50.881Z,70.81
2016-07-10T10:05:50.738Z,69.48
2016-07-10T10:06:50.748Z,67.86
2016-07-10T10:07:50.876Z,69.51
2016-07-10T10:08:50.902Z,69.77
2016-07-10T10:09:50.884Z,69.32
2016-07-10T10:10:50.765Z,68.25
2016-07-10T10:11:50.891Z,69.87
2016-07-10T10:12:50.750Z,68.96
2016-07-10T10:13:50.903Z,68.41
2016-07-10T10:14:50.898Z,68.8
2016-07-10T10:15:50.770Z,69.09
2016-07-10T10:16:50.903Z,69.61
2016-07-10T10:17:50.772Z,69.09
2016-07-10T10:18:50.789Z,69.38
2016-07-10T10:19:50.911Z,69.64
2016-07-10T10:20:50.918Z,68.8
2016-07-10T10:21:50.927Z,69.38
2016-07-10T10:22:50.934Z,69.19
2016-07-10T10:23:50.920Z,69.48
2016-07-10T10:24:50.787Z,69.48
2016-07-10T10:25:50.788Z,68.8
2016-07-10T10:26:50.931Z,68.74
2016-07-10T10:27:50.800Z,68.84
2016-07-10T10:28:50.806Z,68.15
2016-07-10T10:29:50.807Z,67.7
2016-07-10T10:30:50.817Z,67.8
2016-07-10T10:31:50.809Z,69.32
2016-07-10T10:32:50.829Z,69.61
2016-07-10T10:33:51.007Z,69.13
2016-07-10T10:34:50.817Z,70.29
2016-07-10T10:35:50.965Z,70.16
2016-07-10T10:36:50.840Z,70.51
2016-07-10T10:37:50.821Z,69.32
2016-07-10T10:38:50.964Z,69.61
2016-07-10T10:39:50.834Z,69.71
2016-07-10T10:40:50.833Z,68.19
2016-07-10T10:41:50.980Z,67.73
2016-07-10T10:42:50.846Z,67.83
2016-07-10T10:43:50.851Z,67.99
2016-07-10T10:44:50.852Z,68.29
2016-07-10T10:45:50.982Z,69.42
2016-07-10T10:46:50.986Z,69.42
2016-07-10T10:47:50.855Z,69.9
2016-07-10T10:48:50.995Z,69.81
2016-07-10T10:49:50.991Z,69.32
2016-07-10T10:50:50.995Z,68.77
2016-07-10T10:51:50.870Z,68.67
2016-07-10T10:52:51.009Z,68.77
2016-07-10T10:53:50.874Z,68.09
2016-07-10T10:54:51.016Z,68.87
2016-07-10T10:55:50.876Z,70.16
2016-07-10T10:56:51.021Z,70.26
2016-07-10T10:57:51.035Z,70.03
2016-07-10T10:58:50.912Z,69.48
2016-07-10T10:59:51.029Z,69.67
2016-07-10T11:00:50.893Z,70.16
2016-07-10T11:01:50.900Z,70.26
2016-07-10T11:02:50.922Z,70.9
2016-07-10T11:03:51.046Z,70.51
2016-07-10T11:04:51.048Z,70.36
2016-07-10T11:05:50.914Z,69.81
2016-07-10T11:06:50.915Z,68.74
2016-07-10T11:07:50.916Z,69.65
2016-07-10T11:08:51.050Z,68.64
2016-07-10T11:09:51.057Z,69.51
2016-07-10T11:10:50.953Z,70.06
2016-07-10T11:11:50.928Z,69.74
2016-07-10T11:12:50.951Z,69.74
2016-07-10T11:13:51.069Z,69.93
2016-07-10T11:14:50.943Z,70.32
2016-07-10T11:15:50.946Z,70.36
2016-07-10T11:16:50.936Z,70.06
2016-07-10T11:17:51.087Z,70.36
2016-07-10T11:25:19.116Z,69.77
2016-07-10T11:37:27.156Z,64.36
2016-07-10T11:38:27.140Z,64.59
2016-07-10T11:39:27.283Z,63.35
2016-07-10T11:40:27.309Z,64.42
2016-07-10T11:41:27.295Z,63.9
2016-07-10T11:42:27.285Z,63.81
2016-07-10T11:43:27.297Z,63.35
2016-07-10T11:44:27.175Z,62.7
2016-07-10T11:45:27.155Z,62.6
2016-07-10T11:46:27.164Z,62.79
2016-07-10T11:47:27.299Z,63.21
2016-07-10T11:48:27.198Z,62.5
2016-07-10T11:49:27.174Z,63.28
2016-07-10T11:50:27.304Z,63.9
2016-07-10T11:51:27.178Z,63.54
2016-07-10T11:52:27.327Z,63.84
2016-07-10T11:53:27.324Z,62.5
2016-07-10T11:54:27.330Z,63.6
2016-07-10T11:55:27.196Z,62.99
2016-07-10T11:56:27.192Z,62.24
2016-07-10T11:57:27.333Z,63.67
2016-07-10T11:58:27.330Z,64.03
2016-07-10T11:59:27.357Z,62.02
2016-07-10T12:00:27.334Z,61.62
2016-07-10T12:01:27.208Z,61.33
2016-07-10T12:02:27.213Z,62.08
2016-07-10T12:03:27.346Z,63.9
2016-07-10T12:04:27.219Z,63.87
2016-07-10T12:05:27.217Z,62.73
2016-07-10T12:06:27.360Z,62.08
2016-07-10T12:07:27.360Z,60.68
2016-07-10T12:08:27.227Z,60.74
2016-07-10T12:09:27.259Z,60.74
2016-07-10T12:10:27.243Z,62.34
2016-07-10T12:11:27.238Z,62.96
2016-07-10T12:12:27.255Z,64.03
2016-07-10T12:13:27.244Z,62.05
2016-07-10T12:14:27.257Z,60.75
2016-07-10T12:15:27.251Z,61.53
2016-07-10T12:16:27.396Z,61.63
2016-07-10T12:17:27.263Z,61.92
2016-07-10T12:18:27.406Z,61.92
2016-07-10T12:19:27.264Z,62.24
2016-07-10T12:20:27.295Z,62.89
2016-07-10T12:21:27.433Z,62.31
2016-07-10T12:22:27.280Z,62.05
2016-07-10T12:23:27.406Z,63.02
2016-07-10T12:24:27.407Z,63.84
2016-07-10T12:25:27.284Z,63.81
2016-07-10T12:26:27.421Z,62.86
2016-07-10T12:27:27.280Z,61.76
2016-07-10T12:28:27.292Z,61.43
2016-07-10T12:29:27.426Z,60.97
2016-07-10T12:30:27.439Z,62.02
2016-07-10T12:31:27.459Z,63.06
2016-07-10T12:32:27.445Z,62.96
2016-07-10T12:33:27.303Z,61.66
2016-07-10T12:34:27.452Z,60.88
2016-07-10T12:35:27.454Z,61.33
2016-07-10T12:36:27.323Z,61.27
2016-07-10T12:37:27.351Z,61.76
2016-07-10T12:38:27.462Z,61.4
2016-07-10T12:39:27.463Z,59.4
2016-07-10T12:40:27.461Z,58.26
2016-07-10T12:41:27.328Z,59.14
2016-07-10T12:42:27.354Z,60.74
2016-07-10T12:43:27.466Z,59.96
2016-07-10T12:44:27.337Z,59.57
2016-07-10T12:45:27.344Z,59.33
2016-07-10T12:46:27.487Z,58.36
2016-07-10T12:47:27.476Z,59.67
2016-07-10T12:48:27.360Z,58.95
2016-07-10T12:49:27.356Z,59.38
2016-07-10T13:01:35.321Z,60.16
2016-07-10T13:02:35.452Z,60.13
2016-07-10T13:03:35.329Z,60.58
2016-07-10T13:04:35.322Z,61.01
2016-07-10T13:05:35.333Z,59.7
2016-07-10T13:06:35.332Z,58.95
2016-07-10T13:07:35.459Z,59.8
2016-07-10T13:08:35.329Z,60.78
2016-07-10T13:09:35.477Z,60.1
2016-07-10T13:10:35.466Z,60.58
2016-07-10T13:11:35.549Z,59.41
2016-07-10T13:12:35.471Z,58.59
2016-07-10T13:13:35.483Z,59.93
2016-07-10T13:14:35.481Z,60.36
2016-07-10T13:15:35.482Z,61.63
2016-07-10T13:16:35.408Z,61.56
2016-07-10T13:17:35.353Z,61.53
2016-07-10T13:18:35.489Z,61.27
2016-07-10T13:19:35.363Z,59.83
2016-07-10T13:20:35.368Z,60.71
2016-07-10T13:21:35.364Z,60.22
2016-07-10T13:22:35.556Z,59.69
2016-07-10T13:23:35.372Z,59.3